Platteville, Iowa
Current Conditions -  °F | °C
As of 4:15 PM on Tuesday 25 Nov 2014 (Local Time) from KCSQ Reporting Station
Clear Clear  
Wind Chill: 24°   Ceiling: Unl
Heat Index: 32°   Visibility: 10mi
Dew Point: 16°   Wind: 9mph
Humidity: 51%   Direction: 180°S
Pressure: 30.04"   Gusts: NA
Location:  40.6485°N, 94.5286°W
Report Text: KCSQ 252215Z AUTO 18008KT 10SM CLR 00/M09 A3004 RMK AO2
Loading
Personal Weather Stations






























Interactive Weather Map New forecast layout! Learn more

10-Day Weather Forecast

Advertisements
Track Severe Weather on mobile